EGVO

Details ICAO EGVO (ODH)
Name RAF Odiham
Region United Kingdom
Timezone Europe/London (UTC+0.0)
Plans Departing 1
Arriving 0
Stats Elevation 405 ft / 123 m (AMSL)
Location 51.234183° -0.942754°
Runways 1
Magnetic Variation 0.702° W
Sunrise 2017-12-12 08:00:26 UTC / 2017-12-12 08:00:26 Local
Sunset 2017-12-12 15:57:27 UTC / 2017-12-12 15:57:27 Local
Advertisement - Login to hide

Runways

ID Width Length Bearing (true) Bearing (mag) Surface Threshold Offset Overrun Length
09 131 ft / 40 m 6,006 ft / 1,831 m 92.60° 93.30° Asphalt 0 ft / 0 m 0 ft / 0 m
27 131 ft / 40 m 6,006 ft / 1,831 m 272.62° 273.32° Asphalt 0 ft / 0 m 0 ft / 0 m

Approach Navaids

Runway Type Ident Frequency Range Bearing (true) Bearing (mag) Slope Elevation
27 Localiser IODH 108.95 MHz 18 nm / 33 km 268.74° 269.44° - 405 ft / 123 m (AMSL)

Map

Weather


0- 5 10 15 20 25 30 35+ Temperature / ° C

Clouds and Precipitation
Forecast for 2017-12-12 06:00 UTC. Updated an hour ago

Ground ~20,000 ft ~40,000 ft Winds

METAR

EGVO 120350Z 29007KT CAVOK M02/M03 Q1004 BLU

TAF

TAF TAF EGVO 112222Z 1121/1209 CNL

Frequencies

Tower 122.10 MHz Odiham Tower
Approach 131.30 MHz Odiham Approach
Warning: Do not use this data for real-world aviation or navigation. No guarantee of current accuracy is given.